Glen Carbon, Illinois
Current Conditions -  °F | °C
As of 6:50 PM on Sunday 23 Nov 2014 (Local Time) from KALN Reporting Station
Drizzle Drizzle  
Wind Chill: 52°   Ceiling: 500
Heat Index: 52°   Visibility: 2mi
Dew Point: 50°   Wind: 0mph
Humidity: 94%   Direction: NA
Pressure: 29.28"   Gusts: NA
Location:  38.76°N, 89.97°W
Report Text: KALN 240050Z 00000KT 2SM DZ OVC005 11/10 A2928
Loading
Personal Weather Stations






























Interactive Weather Map New forecast layout! Learn more

10-Day Weather Forecast

Advertisements
Track Severe Weather on mobile